createdAt,value
2018-08-03T00:00:53.897Z,21.75
2018-08-03T00:01:53.911Z,21.71
2018-08-03T00:02:53.877Z,21.83
2018-08-03T00:03:53.864Z,21.75
2018-08-03T00:04:53.855Z,21.77
2018-08-03T00:05:53.868Z,21.77
2018-08-03T00:06:53.832Z,21.68
2018-08-03T00:07:53.818Z,21.74
2018-08-03T00:08:53.834Z,21.66
2018-08-03T00:09:53.800Z,21.68
2018-08-03T00:10:53.787Z,21.67
2018-08-03T00:11:53.775Z,21.66
2018-08-03T00:12:53.797Z,21.59
2018-08-03T00:13:53.755Z,21.59
2018-08-03T00:14:53.747Z,21.58
2018-08-03T00:15:53.734Z,21.63
2018-08-03T00:16:53.721Z,21.55
2018-08-03T00:17:53.709Z,21.51
2018-08-03T00:18:53.733Z,21.48
2018-08-03T00:19:53.687Z,21.49
2018-08-03T00:20:53.677Z,21.45
2018-08-03T00:21:53.667Z,21.45
2018-08-03T00:22:53.657Z,21.33
2018-08-03T00:23:53.646Z,21.42
2018-08-03T00:24:53.654Z,21.31
2018-08-03T00:25:53.622Z,21.37
2018-08-03T00:26:53.612Z,21.27
2018-08-03T00:27:53.649Z,21.22
2018-08-03T00:28:53.591Z,21.24
2018-08-03T00:29:53.581Z,21.26
2018-08-03T00:30:53.567Z,21.09
2018-08-03T00:31:53.556Z,21.11
2018-08-03T00:32:53.548Z,21.12
2018-08-03T00:33:53.568Z,21.12
2018-08-03T00:34:53.523Z,21.11
2018-08-03T00:35:53.513Z,21.09
2018-08-03T00:36:53.504Z,21.19
2018-08-03T00:37:53.492Z,21.15
2018-08-03T00:38:53.480Z,21.16
2018-08-03T00:39:53.500Z,21.12
2018-08-03T00:40:53.456Z,21.13
2018-08-03T00:41:53.445Z,21.18
2018-08-03T00:42:53.439Z,21.28
2018-08-03T00:43:53.425Z,21.30
2018-08-03T00:44:53.415Z,21.21
2018-08-03T00:45:53.430Z,21.28
2018-08-03T00:46:53.437Z,21.26
2018-08-03T00:47:53.382Z,21.15
2018-08-03T00:48:53.372Z,21.18
2018-08-03T00:49:53.357Z,21.09
2018-08-03T00:50:53.345Z,21.15
2018-08-03T00:51:53.334Z,21.08
2018-08-03T00:52:53.347Z,20.98
2018-08-03T00:53:53.315Z,20.97
2018-08-03T00:54:53.341Z,20.93
2018-08-03T00:55:53.295Z,20.94
2018-08-03T00:56:53.287Z,20.93
2018-08-03T00:57:53.269Z,20.93
2018-08-03T00:58:53.279Z,20.88
2018-08-03T00:59:53.248Z,20.93
2018-08-03T01:00:53.282Z,20.85
2018-08-03T01:01:53.228Z,20.88
2018-08-03T01:02:53.215Z,20.78
2018-08-03T01:03:53.202Z,20.81
2018-08-03T01:04:53.193Z,20.73
2018-08-03T01:05:53.184Z,20.75
2018-08-03T01:06:53.196Z,20.66
2018-08-03T01:07:53.158Z,20.64
2018-08-03T01:08:53.147Z,20.64
2018-08-03T01:09:53.138Z,20.68
2018-08-03T01:10:53.131Z,20.60
2018-08-03T01:11:53.149Z,20.69
2018-08-03T01:12:53.108Z,20.71
2018-08-03T01:13:53.116Z,20.71
2018-08-03T01:14:53.080Z,20.56
2018-08-03T01:15:53.069Z,20.66
2018-08-03T01:16:53.107Z,20.53
2018-08-03T01:17:53.047Z,20.57
2018-08-03T01:18:53.034Z,20.61
2018-08-03T01:19:53.041Z,20.57
2018-08-03T01:20:53.018Z,20.53
2018-08-03T01:21:53.002Z,20.51
2018-08-03T01:22:53.027Z,20.42
2018-08-03T01:23:52.977Z,20.44
2018-08-03T01:24:52.968Z,20.48
2018-08-03T01:25:52.973Z,20.48
2018-08-03T01:26:52.947Z,20.38
2018-08-03T01:27:52.933Z,20.40
2018-08-03T01:28:52.955Z,20.40
2018-08-03T01:29:52.912Z,20.40
2018-08-03T01:30:52.902Z,20.44
2018-08-03T01:31:52.894Z,20.37
2018-08-03T01:32:52.883Z,20.42
2018-08-03T01:33:52.868Z,20.33
2018-08-03T01:34:52.892Z,20.38
2018-08-03T01:35:52.847Z,20.35
2018-08-03T01:36:52.837Z,20.34
2018-08-03T01:37:52.942Z,20.34
2018-08-03T01:38:52.814Z,20.34
2018-08-03T01:39:52.802Z,20.38
2018-08-03T01:40:52.813Z,20.37
2018-08-03T01:41:52.778Z,20.33
2018-08-03T01:42:52.767Z,20.34
2018-08-03T01:43:52.767Z,20.33
2018-08-03T01:44:52.745Z,20.25
2018-08-03T01:45:52.774Z,20.17
2018-08-03T01:46:52.722Z,20.19
2018-08-03T01:47:52.711Z,20.16
2018-08-03T01:48:52.697Z,20.13
2018-08-03T01:49:52.685Z,20.13
2018-08-03T01:50:52.674Z,20.12
2018-08-03T01:51:52.688Z,20.13
2018-08-03T01:52:52.656Z,20.08
2018-08-03T01:53:52.648Z,20.04
2018-08-03T01:54:52.631Z,20.01
2018-08-03T01:55:52.623Z,20.10
2018-08-03T01:56:52.634Z,20.00
2018-08-03T01:57:52.596Z,20.01
2018-08-03T01:58:52.623Z,20.15
2018-08-03T01:59:52.576Z,20.04
2018-08-03T02:00:52.565Z,20.01
2018-08-03T02:01:52.552Z,19.98
2018-08-03T02:02:52.542Z,19.89
2018-08-03T02:03:52.531Z,19.89
2018-08-03T02:04:57.851Z,19.90
2018-08-03T02:05:52.507Z,19.92
2018-08-03T02:06:52.506Z,19.90
2018-08-03T02:07:52.486Z,19.87
2018-08-03T02:08:52.472Z,19.89
2018-08-03T02:09:52.460Z,19.89
2018-08-03T02:10:52.470Z,19.89
2018-08-03T02:11:52.453Z,19.82
2018-08-03T02:12:52.429Z,19.80
2018-08-03T02:13:52.416Z,19.82
2018-08-03T02:14:52.404Z,19.79
2018-08-03T02:15:52.400Z,19.83
2018-08-03T02:16:52.400Z,19.83
2018-08-03T02:17:52.385Z,19.80
2018-08-03T02:18:52.375Z,19.80
2018-08-03T02:19:52.349Z,19.71
2018-08-03T02:20:52.335Z,19.72
2018-08-03T02:21:52.329Z,19.76
2018-08-03T02:22:52.312Z,19.71
2018-08-03T02:23:52.320Z,19.67
2018-08-03T02:24:52.320Z,19.70
2018-08-03T02:25:52.283Z,19.65
2018-08-03T02:26:52.272Z,19.67
2018-08-03T02:27:52.261Z,19.65
2018-08-03T02:28:52.251Z,19.58
2018-08-03T02:29:52.235Z,19.60
2018-08-03T02:30:52.244Z,19.61
2018-08-03T02:31:52.238Z,19.53
2018-08-03T02:32:52.220Z,19.61
2018-08-03T02:33:52.191Z,19.58
2018-08-03T02:34:52.183Z,19.49
2018-08-03T02:35:52.175Z,19.47
2018-08-03T02:36:52.161Z,19.46
2018-08-03T02:37:52.163Z,19.45
2018-08-03T02:38:52.138Z,19.50
2018-08-03T02:39:52.128Z,19.49
2018-08-03T02:40:52.113Z,19.50
2018-08-03T02:41:52.117Z,19.42
2018-08-03T02:42:52.099Z,19.49
2018-08-03T02:43:52.099Z,19.50
2018-08-03T02:44:52.069Z,19.47
2018-08-03T02:45:52.061Z,19.35
2018-08-03T02:46:52.048Z,19.32
2018-08-03T02:47:52.034Z,19.38
2018-08-03T02:48:52.029Z,19.39
2018-08-03T02:49:52.030Z,19.45
2018-08-03T02:50:52.023Z,19.42
2018-08-03T02:51:51.991Z,19.39
